This is the latest recevied weather packets stored in our database for station/object GAPWX. If no packets are shown the sender has not sent any weather packets the latest 10 day(s).
| Time | Temp. | Humidity | Pressure | Rain* | Wind** | Luminosity | Snow |
|---|---|---|---|---|---|---|---|
| 1787807173 | 16.67° C | 31% | 1021.8 hPa | 0 mm | - | - | - |
| 1787805967 | 17.78° C | 31% | 1021.8 hPa | 0 mm | - | - | - |
| 1787805665 | 17.78° C | 30% | 1021.8 hPa | 0 mm | - | - | - |
| 1787804460 | 18.33° C | 29% | 1021.7 hPa | 0 mm | - | - | - |
| 1787804161 | 18.33° C | 29% | 1021.7 hPa | 0 mm | - | - | - |
| 1787803858 | 18.89° C | 28% | 1021.6 hPa | 0 mm | - | - | - |
| 1787803557 | 18.89° C | 28% | 1021.6 hPa | 0 mm | - | - | - |
| 1787802954 | 19.44° C | 27% | 1021.6 hPa | 0 mm | - | - | - |
| 1787802652 | 19.44° C | 27% | 1021.5 hPa | 0 mm | - | - | - |
| 1787802049 | 20° C | 27% | 1021.5 hPa | 0 mm | - | - | - |
| 1787801748 | 20° C | 26% | 1021.4 hPa | 0 mm | - | - | - |
| 1787801446 | 20.56° C | 26% | 1021.3 hPa | 0 mm | - | - | - |
| 1787801146 | 20.56° C | 26% | 1021.3 hPa | 0 mm | - | - | - |
| 1787800843 | 21.11° C | 26% | 1021.2 hPa | 0 mm | - | - | - |
| 1787800241 | 21.11° C | 25% | 1021.1 hPa | 0 mm | - | - | - |
| 1787799940 | 21.67° C | 25% | 1021.1 hPa | 0 mm | - | - | - |
| 1787799638 | 21.67° C | 25% | 1021.1 hPa | 0 mm | - | - | - |
| 1787799338 | 21.67° C | 25% | 1021 hPa | 0 mm | - | - | - |
| 1787799035 | 22.22° C | 24% | 1021.1 hPa | 0 mm | - | - | - |
| 1787776871 | 31.11° C | 19% | 1022 hPa | 0 mm | - | - | - |
| 1787769651 | 28.33° C | 26% | 1022.4 hPa | 0 mm | - | - | - |
| 1787768144 | 27.78° C | 28% | 1022.5 hPa | 0 mm | - | - | - |
| 1787767842 | 27.22° C | 28% | 1022.4 hPa | 0 mm | - | - | - |
| 1787766939 | 27.22° C | 28% | 1022.5 hPa | 0 mm | - | - | - |
| 1787766035 | 27.22° C | - | - | - | - | - | - |
* Rain since midnight (hover to see other rain measurements)
** Current wind speed in m/s (hover to see current wind gust speed)